Airfield :
LOGIN :

Register | Disclaimer

   EN    FR    IT 

 










Legend :    VFR   Marginal VFR   IFR   Intensive IFR   Very Intensive IFR
Visi :
Ceiling :
>= 8 km
>= 3000ft
5 to 8 km
1000 to 3000 ft
1500m to 5 km
500 to 1000 ft
800 to 1500m
200 to 500 ft
< 800m
< 200 ft
Symbols :   Thunderstorms  Fog  Heavy snow  Heavy precipitations  Wind > 20 kt
SIGMETs :     Misc.  Thunderstorms  Icing  Turbulence  Mountain Waves  Volcanic Ashes







- Airport Elevation : 290 ft
- IATA code : LAI
- Download approach charts


LFRO - Lannion

CURRENT METAR :
  • 210100Z AUTO VRB03KT 3900 BR NSC 10/09 Q1016

EXPIRED METARs :
  • 210030Z AUTO VRB02KT 3400 BR NSC 10/09 Q1016
  • 210000Z AUTO VRB02KT 3800 BR NSC 10/09 Q1016
  • 202330Z AUTO VRB02KT 3800 BR NSC 10/09 Q1017
  • 202300Z AUTO VRB03KT 3900 BR NSC 10/09 Q1017
  • 202230Z AUTO 00000KT 3800 BR NSC 10/09 Q1017

TAF AMD TAF LFRO
Valid from the 20 at 19:00 until the 21 at 12:00 UTC


201931Z 2019/2112 02008KT 5000 BR FEW020
BECMG 2023/2102 3000 BR BKN008
PROB40
TEMPO 2102/2107 0200 FG VV///
BECMG 2107/2109 9999 NSW SCT015
No reported NOTAMs for that airfield.



MET'MAP, your aeronautical weather chart ! - Copyright ORBIFLY December 2007 - Disclaimer

ORBIFLY MET'MAP TEAM :

Programming & Development : Alexandra Zaïnal
Concept & Development : Baudouin d'Aumeries
Co-Development & Prog : Marc-Olivier Méhu
Technical & hardware support : Manuel Goepfert

Contact : metmap@orbifly.com




SOURCES & CREDITS :

   NOAA